Time;durP1;ratioP1;P1;durP2;ratioP2;P2;SDS_P1;SDS_P2;PMS_P1;PMS_P2;Temp;Humidity;BMP_temperature;BMP_pressure;BME280_temperature;BME280_humidity;BME280_pressure;Samples;Min_cycle;Max_cycle;Signal;HPM_P1;HPM_P2
2021/04/13 00:00:03;;;;;;;7.63;1.57;;;18.10;95.10;;;;;;5051848;28;20176;-72
2021/04/13 00:02:40;;;;;;;5.90;1.70;;;18.30;95.30;;;;;;5052326;28;20194;-76
2021/04/13 00:05:36;;;;;;;7.07;2.07;;;18.40;94.50;;;;;;5052144;28;20237;-77
2021/04/13 00:08:11;;;;;;;5.57;1.40;;;18.50;94.30;;;;;;5048947;28;20180;-69
2021/04/13 00:10:49;;;;;;;4.80;1.73;;;18.60;94.40;;;;;;5051052;28;20230;-73
2021/04/13 00:13:18;;;;;;;8.23;1.97;;;18.70;93.80;;;;;;5051491;28;20207;-69
2021/04/13 00:15:57;;;;;;;5.70;1.40;;;18.70;92.60;;;;;;5051398;28;20238;-71
2021/04/13 00:18:30;;;;;;;5.83;1.63;;;18.80;93.10;;;;;;5051615;28;20529;-69
2021/04/13 00:21:13;;;;;;;4.43;1.53;;;18.90;92.80;;;;;;5051627;28;20258;-71
2021/04/13 00:23:41;;;;;;;8.30;1.30;;;19.00;93.30;;;;;;5051674;28;20187;-84
2021/04/13 00:26:11;;;;;;;7.73;1.70;;;19.10;91.90;;;;;;5050645;28;20184;-80
2021/04/13 00:28:49;;;;;;;6.83;1.33;;;19.20;91.80;;;;;;5052549;28;20642;-80
2021/04/13 00:31:43;;;;;;;3.97;1.30;;;19.10;91.60;;;;;;5052341;28;20241;-82
2021/04/13 00:34:23;;;;;;;2.70;1.47;;;19.20;91.60;;;;;;5051630;28;20227;-80
2021/04/13 00:36:53;;;;;;;4.67;1.13;;;19.30;91.60;;;;;;5034978;28;20187;-79
2021/04/13 00:39:29;;;;;;;5.53;1.50;;;19.50;91.10;;;;;;5048352;28;20506;-77
2021/04/13 00:42:02;;;;;;;5.70;1.33;;;19.70;90.80;;;;;;5052630;28;20641;-81
2021/04/13 00:44:35;;;;;;;6.47;1.50;;;19.80;90.20;;;;;;5049681;28;20180;-76
2021/04/13 00:47:13;;;;;;;4.20;1.30;;;19.90;89.40;;;;;;5036193;28;20532;-78
2021/04/13 00:49:48;;;;;;;4.50;1.57;;;19.80;89.10;;;;;;5050560;28;20677;-76
2021/04/13 00:52:20;;;;;;;5.23;1.30;;;20.00;89.70;;;;;;5056543;28;20278;-74
2021/04/13 00:54:55;;;;;;;7.17;1.53;;;20.00;88.80;;;;;;5055577;28;20171;-79
2021/04/13 00:57:33;;;;;;;4.83;1.23;;;20.00;89.00;;;;;;5052251;28;20201;-75
2021/04/13 01:00:02;;;;;;;4.90;1.50;;;20.10;86.80;;;;;;5033292;28;20169;-73
2021/04/13 01:02:32;;;;;;;4.37;1.40;;;20.20;86.20;;;;;;5048105;28;20192;-76
2021/04/13 01:05:08;;;;;;;5.03;1.10;;;20.10;84.20;;;;;;5045270;28;20179;-79
2021/04/13 01:07:40;;;;;;;5.70;1.47;;;20.10;84.00;;;;;;5053948;28;20214;-77
2021/04/13 01:10:24;;;;;;;4.53;1.10;;;20.00;83.70;;;;;;5053781;28;20188;-75
2021/04/13 01:13:16;;;;;;;4.70;0.90;;;20.30;81.40;;;;;;5055853;28;20211;-80
2021/04/13 01:15:47;;;;;;;7.40;1.07;;;20.30;82.00;;;;;;5017248;28;20203;-76
2021/04/13 01:18:19;;;;;;;4.87;1.10;;;20.20;81.90;;;;;;5054717;28;20223;-78
2021/04/13 01:21:07;;;;;;;5.23;1.40;;;20.40;82.90;;;;;;5055998;28;20219;-82
2021/04/13 01:23:55;;;;;;;4.10;1.53;;;20.70;81.70;;;;;;5050737;28;20433;-80
2021/04/13 01:26:23;;;;;;;5.03;1.53;;;20.70;82.00;;;;;;5050082;28;20178;-78
2021/04/13 01:28:52;;;;;;;8.07;1.20;;;20.80;81.40;;;;;;5055687;28;20220;-80
2021/04/13 01:31:46;;;;;;;7.27;1.67;;;20.80;80.70;;;;;;5035675;28;20216;-78
2021/04/13 01:34:28;;;;;;;7.57;1.20;;;21.00;80.30;;;;;;5039956;28;20180;-83
2021/04/13 01:37:10;;;;;;;7.80;1.50;;;21.10;78.50;;;;;;5055814;28;20175;-78
2021/04/13 01:40:03;;;;;;;7.33;1.70;;;21.30;78.80;;;;;;5056090;28;20259;-76
2021/04/13 01:42:33;;;;;;;4.80;1.47;;;21.20;78.30;;;;;;5056061;28;20172;-77
2021/04/13 01:45:14;;;;;;;4.27;1.77;;;21.30;78.30;;;;;;5071417;28;20572;-79
2021/04/13 01:47:45;;;;;;;6.33;1.87;;;21.40;78.90;;;;;;5055584;28;20637;-79
2021/04/13 01:50:22;;;;;;;7.97;1.63;;;21.60;79.00;;;;;;5055671;28;20199;-77
2021/04/13 01:52:52;;;;;;;4.47;1.70;;;21.70;78.40;;;;;;5055337;28;20545;-78
2021/04/13 01:55:28;;;;;;;5.43;1.57;;;21.90;78.10;;;;;;5056377;28;20200;-76
2021/04/13 01:58:17;;;;;;;7.23;1.70;;;21.90;77.70;;;;;;5071255;28;20270;-81
2021/04/13 02:00:51;;;;;;;9.47;2.33;;;21.80;78.40;;;;;;5055095;28;20187;-79
2021/04/13 02:03:37;;;;;;;4.33;1.33;;;22.00;78.30;;;;;;5055097;28;20692;-77
2021/04/13 02:06:14;;;;;;;5.00;1.47;;;22.40;77.70;;;;;;5055180;28;20167;-79
2021/04/13 02:08:53;;;;;;;5.90;1.33;;;22.50;77.50;;;;;;5054830;28;20184;-78
2021/04/13 02:11:34;;;;;;;5.23;1.67;;;22.80;76.70;;;;;;5055606;28;20257;-82
2021/04/13 02:14:08;;;;;;;5.60;1.27;;;22.30;76.00;;;;;;5054870;28;20184;-76
2021/04/13 02:16:43;;;;;;;6.90;1.80;;;22.20;76.50;;;;;;5054244;28;20187;-77
2021/04/13 02:19:11;;;;;;;3.23;1.37;;;22.40;77.00;;;;;;5055098;28;20171;-75
2021/04/13 02:21:46;;;;;;;3.80;1.53;;;23.00;75.90;;;;;;5054670;28;20180;-75
2021/04/13 02:24:17;;;;;;;8.53;1.97;;;23.10;75.30;;;;;;5057111;28;20175;-78
2021/04/13 02:26:51;;;;;;;5.83;1.50;;;23.10;75.60;;;;;;5055145;28;20183;-76
2021/04/13 02:29:23;;;;;;;4.03;1.60;;;22.90;75.10;;;;;;5053659;28;20269;-78
2021/04/13 02:32:01;;;;;;;2.90;1.07;;;22.90;75.20;;;;;;5054127;28;20297;-77
2021/04/13 02:34:50;;;;;;;3.87;1.20;;;23.30;74.20;;;;;;5054480;28;20171;-73
2021/04/13 02:37:27;;;;;;;4.37;1.10;;;23.70;74.40;;;;;;5050362;28;20198;-75
2021/04/13 02:39:56;;;;;;;7.70;3.03;;;24.00;73.20;;;;;;5054815;28;20593;-80
2021/04/13 02:42:26;;;;;;;10.03;2.07;;;23.80;73.50;;;;;;5054491;28;20208;-76
2021/04/13 02:45:03;;;;;;;4.97;1.40;;;24.20;73.00;;;;;;5069860;28;20266;-78
2021/04/13 02:47:36;;;;;;;6.90;1.20;;;24.20;71.10;;;;;;5050739;28;20230;-78
2021/04/13 02:50:07;;;;;;;6.03;1.20;;;23.90;71.90;;;;;;5053896;28;20246;-74
2021/04/13 02:52:41;;;;;;;3.60;0.90;;;24.20;71.90;;;;;;5053008;28;20176;-82
2021/04/13 02:55:16;;;;;;;2.87;1.37;;;24.00;71.60;;;;;;5060600;28;20192;-77
2021/04/13 02:57:45;;;;;;;5.33;1.60;;;23.90;73.40;;;;;;5055009;28;20641;-77
2021/04/13 03:00:22;;;;;;;7.60;1.40;;;23.90;74.30;;;;;;5053464;28;20187;-72
2021/04/13 03:03:02;;;;;;;10.83;2.00;;;24.00;74.90;;;;;;5050843;28;20244;-77
2021/04/13 03:05:31;;;;;;;6.77;1.90;;;23.80;74.90;;;;;;5054083;28;20651;-76
2021/04/13 03:08:03;;;;;;;13.77;2.10;;;24.10;74.90;;;;;;5053570;28;20689;-76
2021/04/13 03:10:44;;;;;;;9.60;1.60;;;24.50;73.90;;;;;;5053737;28;20203;-75
2021/04/13 03:13:21;;;;;;;9.20;2.37;;;24.90;73.70;;;;;;5053819;28;20230;-76
2021/04/13 03:15:56;;;;;;;8.90;1.83;;;24.90;73.70;;;;;;5052841;28;20654;-73
2021/04/13 03:18:46;;;;;;;7.17;1.30;;;24.90;73.10;;;;;;5053575;28;20175;-74
2021/04/13 03:21:34;;;;;;;10.67;1.70;;;24.40;73.90;;;;;;5053485;28;20188;-73
2021/04/13 03:24:05;;;;;;;7.93;2.23;;;24.20;74.80;;;;;;5065866;28;20180;-78
2021/04/13 03:26:35;;;;;;;7.17;1.50;;;23.70;75.40;;;;;;5053423;28;20661;-80
2021/04/13 03:29:15;;;;;;;7.87;1.70;;;23.80;75.40;;;;;;5053558;28;20215;-78
2021/04/13 03:31:43;;;;;;;6.67;1.80;;;24.00;76.20;;;;;;5052607;28;20196;-79
2021/04/13 03:34:10;;;;;;;31.93;6.50;;;24.30;74.70;;;;;;5053148;28;20186;-77
2021/04/13 03:36:38;;;;;;;7.33;1.70;;;25.10;74.50;;;;;;5059406;28;20249;-80
2021/04/13 03:39:11;;;;;;;5.57;1.70;;;24.90;73.40;;;;;;5073471;28;20590;-79
2021/04/13 03:41:44;;;;;;;8.13;1.40;;;25.20;73.20;;;;;;5070329;28;20311;-76
2021/04/13 03:44:15;;;;;;;42.47;4.67;;;25.10;73.20;;;;;;5044397;28;20568;-79
2021/04/13 03:46:43;;;;;;;15.87;4.57;;;25.20;73.10;;;;;;5059971;28;20172;-78
2021/04/13 03:49:28;;;;;;;14.20;1.90;;;25.80;72.80;;;;;;5048359;28;20243;-78
2021/04/13 03:52:09;;;;;;;8.57;2.33;;;26.20;72.40;;;;;;5045309;28;20215;-78
2021/04/13 03:54:38;;;;;;;15.03;1.90;;;25.70;71.80;;;;;;5042929;28;20188;-76
2021/04/13 03:57:07;;;;;;;11.43;2.50;;;25.70;72.10;;;;;;5054260;28;20206;-77
2021/04/13 03:59:39;;;;;;;6.00;1.63;;;25.30;73.00;;;;;;5053792;28;20172;-79
2021/04/13 04:02:08;;;;;;;5.57;1.43;;;25.80;72.10;;;;;;5051395;28;20539;-77
2021/04/13 04:04:39;;;;;;;9.93;1.70;;;25.60;72.30;;;;;;5058901;28;20192;-79
2021/04/13 04:07:28;;;;;;;7.80;1.50;;;25.30;72.60;;;;;;5052282;28;20595;-78
2021/04/13 04:09:55;;;;;;;6.67;1.57;;;25.40;72.00;;;;;;5048783;28;20188;-79
2021/04/13 04:12:28;;;;;;;7.43;1.73;;;25.20;72.20;;;;;;5059077;28;20397;-75
2021/04/13 04:15:08;;;;;;;7.67;1.77;;;25.50;72.30;;;;;;5054822;28;20567;-80
2021/04/13 04:17:38;;;;;;;7.80;1.30;;;25.40;72.10;;;;;;5057737;28;20271;-73
2021/04/13 04:20:09;;;;;;;5.07;1.10;;;25.60;72.10;;;;;;5056625;28;20225;-76
2021/04/13 04:22:54;;;;;;;9.17;1.60;;;25.80;72.10;;;;;;5048360;28;20186;-77
2021/04/13 04:25:31;;;;;;;10.13;1.47;;;26.10;70.80;;;;;;5053095;28;20184;-81
2021/04/13 04:28:05;;;;;;;5.73;1.33;;;26.20;70.60;;;;;;5053083;28;20182;-79
2021/04/13 04:30:35;;;;;;;7.03;1.40;;;25.70;71.70;;;;;;5058115;28;20310;-74
2021/04/13 04:33:04;;;;;;;4.83;1.30;;;25.70;71.90;;;;;;5049079;28;20700;-77
2021/04/13 04:35:44;;;;;;;5.83;1.40;;;25.30;72.10;;;;;;5051975;28;20188;-76
2021/04/13 04:38:32;;;;;;;5.33;1.37;;;25.40;72.70;;;;;;5051624;28;20269;-76
2021/04/13 04:41:08;;;;;;;5.13;1.80;;;25.50;73.60;;;;;;5049673;28;20578;-79
2021/04/13 04:43:55;;;;;;;3.90;1.33;;;25.50;73.30;;;;;;5050546;28;20188;-76
2021/04/13 04:46:42;;;;;;;10.87;1.30;;;25.50;72.80;;;;;;5049989;28;20176;-77
2021/04/13 04:49:18;;;;;;;9.80;1.17;;;25.50;72.50;;;;;;5048669;28;20215;-79
2021/04/13 04:51:52;;;;;;;10.23;1.70;;;25.50;72.20;;;;;;5047843;28;20268;-78
2021/04/13 04:54:21;;;;;;;7.80;1.47;;;25.40;72.50;;;;;;5045433;28;20183;-79
2021/04/13 04:56:49;;;;;;;8.50;1.50;;;26.00;72.60;;;;;;5048029;28;20581;-77
2021/04/13 04:59:17;;;;;;;7.80;1.43;;;25.50;73.00;;;;;;5051608;28;20183;-73
2021/04/13 05:01:44;;;;;;;8.13;1.43;;;26.10;72.70;;;;;;5050649;28;20199;-71
2021/04/13 05:04:11;;;;;;;3.13;1.00;;;26.00;72.10;;;;;;5050523;28;20180;-73
2021/04/13 05:06:39;;;;;;;4.70;1.47;;;25.40;72.70;;;;;;5051512;28;20373;-70
2021/04/13 05:09:06;;;;;;;6.03;1.20;;;25.60;73.00;;;;;;5051309;28;20650;-73
2021/04/13 05:11:33;;;;;;;4.70;1.40;;;25.90;72.70;;;;;;5049748;28;20224;-72
2021/04/13 05:14:01;;;;;;;5.53;1.37;;;26.00;72.00;;;;;;5051775;28;20180;-72
2021/04/13 05:16:28;;;;;;;9.30;1.77;;;25.60;73.00;;;;;;5051153;28;20202;-74
2021/04/13 05:18:56;;;;;;;3.40;1.30;;;25.50;73.00;;;;;;5051746;28;20184;-80
2021/04/13 05:21:23;;;;;;;7.10;1.67;;;25.20;74.00;;;;;;5047285;28;20206;-75
2021/04/13 05:23:50;;;;;;;8.30;1.77;;;25.90;73.30;;;;;;5050834;28;20683;-77
2021/04/13 05:26:18;;;;;;;5.83;1.60;;;26.10;73.30;;;;;;5047852;28;20196;-74
2021/04/13 05:28:45;;;;;;;6.23;1.53;;;25.60;73.70;;;;;;5051511;28;20264;-74
2021/04/13 05:31:12;;;;;;;7.90;1.50;;;25.70;73.90;;;;;;5050266;28;20302;-83
2021/04/13 05:33:40;;;;;;;6.47;1.57;;;25.20;73.80;;;;;;5050350;28;20650;-76
2021/04/13 05:36:08;;;;;;;4.97;1.23;;;25.60;74.30;;;;;;5050184;28;20267;-80
2021/04/13 05:38:38;;;;;;;11.90;1.87;;;26.20;73.90;;;;;;5052976;28;20309;-78
2021/04/13 05:41:08;;;;;;;6.43;1.07;;;25.80;73.00;;;;;;5051553;28;20183;-74
2021/04/13 05:43:38;;;;;;;6.63;1.10;;;25.50;74.00;;;;;;5051887;28;20186;-68
2021/04/13 05:46:06;;;;;;;8.27;1.63;;;24.80;75.40;;;;;;5049017;28;20709;-72
2021/04/13 05:48:34;;;;;;;6.30;1.43;;;24.90;75.50;;;;;;5045378;28;20703;-77
2021/04/13 05:51:01;;;;;;;5.50;1.33;;;24.90;75.70;;;;;;5053430;28;20287;-80
2021/04/13 05:53:29;;;;;;;5.47;1.50;;;24.90;76.50;;;;;;5053547;28;20176;-78
2021/04/13 05:55:57;;;;;;;4.97;1.30;;;25.00;75.60;;;;;;5052593;28;20230;-79
2021/04/13 05:58:26;;;;;;;5.07;1.10;;;24.90;75.60;;;;;;5053927;28;20176;-77
2021/04/13 06:00:57;;;;;;;7.93;1.67;;;24.50;76.60;;;;;;5053838;28;20613;-79
2021/04/13 06:03:25;;;;;;;10.47;1.43;;;24.70;76.70;;;;;;5054582;28;20580;-79
2021/04/13 06:05:56;;;;;;;4.57;1.23;;;24.60;77.00;;;;;;5054703;28;20184;-76
2021/04/13 06:08:24;;;;;;;5.40;1.40;;;24.70;76.10;;;;;;5054686;28;20298;-76
2021/04/13 06:10:53;;;;;;;8.13;1.50;;;24.60;76.30;;;;;;5052359;28;20223;-79
2021/04/13 06:13:22;;;;;;;4.77;1.17;;;24.60;77.00;;;;;;5054100;28;20277;-78
2021/04/13 06:15:52;;;;;;;5.63;1.00;;;24.30;77.70;;;;;;5052985;28;20191;-75
2021/04/13 06:18:20;;;;;;;3.83;1.30;;;24.40;77.60;;;;;;5054562;28;20225;-77
2021/04/13 06:20:48;;;;;;;5.03;1.03;;;24.20;78.00;;;;;;5060116;28;20641;-77
2021/04/13 06:23:15;;;;;;;6.50;1.37;;;24.10;78.80;;;;;;5051858;28;20187;-76
2021/04/13 06:25:43;;;;;;;7.60;1.10;;;23.80;79.90;;;;;;5054512;28;20254;-73
2021/04/13 06:28:11;;;;;;;5.13;1.20;;;23.70;79.90;;;;;;5050298;28;20531;-74
2021/04/13 06:30:41;;;;;;;3.37;1.10;;;24.00;80.10;;;;;;5047373;28;20220;-76
2021/04/13 06:33:09;;;;;;;8.60;1.17;;;23.70;79.60;;;;;;5053226;28;20203;-75
2021/04/13 06:35:38;;;;;;;5.80;1.03;;;23.40;80.60;;;;;;5052567;28;20768;-75
2021/04/13 06:38:14;;;;;;;4.60;1.30;;;23.20;81.10;;;;;;5054214;28;20180;-73
2021/04/13 06:40:54;;;;;;;4.93;1.17;;;23.00;82.10;;;;;;5054914;28;20229;-76
2021/04/13 06:43:44;;;;;;;4.40;1.00;;;22.50;83.80;;;;;;5054292;28;20254;-72
2021/04/13 06:46:22;;;;;;;5.57;1.30;;;22.00;85.30;;;;;;5053557;28;20218;-68
2021/04/13 06:49:20;;;;;;;2.97;1.20;;;21.60;86.70;;;;;;5053911;28;20176;-73
2021/04/13 06:52:05;;;;;;;7.10;1.70;;;21.50;88.10;;;;;;5057810;28;20369;-70
2021/04/13 06:54:53;;;;;;;4.37;1.30;;;21.20;89.80;;;;;;5064411;28;20172;-74
2021/04/13 06:57:23;;;;;;;6.40;1.10;;;21.00;90.20;;;;;;5054396;28;20176;-79
2021/04/13 07:00:02;;;;;;;4.43;1.00;;;20.80;90.40;;;;;;5051916;28;20279;-80
2021/04/13 07:03:00;;;;;;;7.33;1.70;;;20.60;90.80;;;;;;5052721;28;20176;-75
2021/04/13 07:05:35;;;;;;;12.30;3.17;;;20.60;91.20;;;;;;5064786;28;20537;-68
2021/04/13 07:08:40;;;;;;;7.47;1.40;;;20.50;91.70;;;;;;5055416;28;20306;-74
2021/04/13 07:11:18;;;;;;;5.60;1.67;;;20.40;92.30;;;;;;5053050;28;20638;-71
2021/04/13 07:14:08;;;;;;;10.30;1.63;;;20.20;92.90;;;;;;5054112;28;20159;-74
2021/04/13 07:16:49;;;;;;;11.00;2.27;;;20.10;93.50;;;;;;5049940;28;20203;-76
2021/04/13 07:19:39;;;;;;;9.77;1.53;;;20.00;94.00;;;;;;5053790;28;20195;-80
2021/04/13 07:22:24;;;;;;;6.90;1.67;;;19.90;94.50;;;;;;5052798;28;20187;-72
2021/04/13 07:25:06;;;;;;;7.93;2.37;;;19.80;95.00;;;;;;5053158;28;20703;-73
2021/04/13 07:27:54;;;;;;;4.13;1.27;;;19.70;95.50;;;;;;5052304;28;20278;-76
2021/04/13 07:30:39;;;;;;;5.63;1.60;;;19.60;96.10;;;;;;5053119;28;20222;-78
2021/04/13 07:33:10;;;;;;;8.87;1.60;;;19.60;96.70;;;;;;5051781;28;20275;-79
2021/04/13 07:35:39;;;;;;;4.23;1.30;;;19.60;97.30;;;;;;5047709;28;20603;-73
2021/04/13 07:38:20;;;;;;;9.23;1.57;;;19.50;97.80;;;;;;5048137;28;20191;-78
2021/04/13 07:40:54;;;;;;;14.00;1.77;;;19.40;98.10;;;;;;5053267;28;20681;-79
2021/04/13 07:43:29;;;;;;;7.30;1.40;;;19.40;98.70;;;;;;5053006;28;20172;-77
2021/04/13 07:46:31;;;;;;;6.10;1.67;;;19.30;99.20;;;;;;5052945;28;20174;-78
2021/04/13 07:49:14;;;;;;;8.43;1.90;;;19.30;99.40;;;;;;5026751;28;20215;-75
2021/04/13 07:51:47;;;;;;;3.57;1.40;;;19.20;99.70;;;;;;5052994;28;20674;-73
2021/04/13 07:54:48;;;;;;;11.40;2.10;;;19.20;99.90;;;;;;5052575;28;20182;-74
2021/04/13 07:57:23;;;;;;;9.83;2.53;;;19.20;99.90;;;;;;5050086;28;20186;-75
2021/04/13 08:00:00;;;;;;;6.60;1.60;;;19.10;99.90;;;;;;5052722;28;20176;-75
2021/04/13 08:02:27;;;;;;;6.70;1.70;;;19.10;99.90;;;;;;5052202;28;20172;-73
2021/04/13 08:04:58;;;;;;;5.40;1.60;;;19.10;99.90;;;;;;5051970;28;20188;-75
2021/04/13 08:07:33;;;;;;;11.63;1.90;;;19.00;99.90;;;;;;5052985;28;20260;-83
2021/04/13 08:10:17;;;;;;;13.00;1.90;;;19.00;99.90;;;;;;5051587;28;20208;-76
2021/04/13 08:12:54;;;;;;;11.37;1.87;;;19.00;99.90;;;;;;5048144;28;20346;-70
2021/04/13 08:15:41;;;;;;;8.30;1.80;;;18.90;99.90;;;;;;5051101;28;20221;-71
2021/04/13 08:18:29;;;;;;;6.57;2.20;;;18.90;99.90;;;;;;5051751;28;20188;-72
2021/04/13 08:21:14;;;;;;;9.60;3.13;;;18.90;99.90;;;;;;5038556;28;20191;-73
2021/04/13 08:23:42;;;;;;;7.07;2.37;;;18.90;99.90;;;;;;5052100;28;20590;-73
2021/04/13 08:26:35;;;;;;;9.57;2.30;;;18.80;99.90;;;;;;5052799;28;20179;-81
2021/04/13 08:30:00;;;;;;;10.07;2.60;;;18.80;99.90;;;;;;5047322;28;20299;-70
2021/04/13 08:35:25;;;;;;;12.90;2.60;;;18.80;99.90;;;;;;5048747;28;20195;-76
2021/04/13 08:37:56;;;;;;;14.13;2.43;;;18.80;99.90;;;;;;5048953;28;20214;-79
2021/04/13 08:40:32;;;;;;;14.13;2.30;;;18.70;99.90;;;;;;5051359;28;20745;-76
2021/04/13 08:43:10;;;;;;;8.07;1.73;;;18.70;99.90;;;;;;5051551;28;20180;-76
2021/04/13 08:45:41;;;;;;;5.90;1.60;;;18.70;99.90;;;;;;5051489;28;20187;-76
2021/04/13 08:48:44;;;;;;;9.17;1.70;;;18.70;99.90;;;;;;5052045;28;20202;-75
2021/04/13 08:51:14;;;;;;;9.10;1.60;;;18.70;99.90;;;;;;5051082;28;20586;-72
2021/04/13 08:53:53;;;;;;;10.13;1.80;;;18.60;99.90;;;;;;5038287;28;20700;-72
2021/04/13 08:56:31;;;;;;;8.67;1.93;;;18.60;99.90;;;;;;5052032;28;20237;-75
2021/04/13 08:59:02;;;;;;;10.37;2.13;;;18.50;99.90;;;;;;5040074;28;20262;-74
2021/04/13 09:01:35;;;;;;;11.77;1.70;;;18.50;99.90;;;;;;5052402;28;20180;-72
2021/04/13 09:04:08;;;;;;;7.13;2.10;;;18.50;99.90;;;;;;5051430;28;20199;-73
2021/04/13 09:06:56;;;;;;;7.33;1.87;;;18.50;99.90;;;;;;5051149;28;20183;-72
2021/04/13 09:09:38;;;;;;;9.20;2.23;;;18.50;99.90;;;;;;5049199;28;20187;-76
2021/04/13 09:12:17;;;;;;;10.03;1.83;;;18.40;99.90;;;;;;5049467;28;20693;-75
2021/04/13 09:15:07;;;;;;;14.00;1.90;;;18.40;99.90;;;;;;5052031;28;20183;-73
2021/04/13 09:18:07;;;;;;;9.37;2.67;;;18.40;99.90;;;;;;5037989;28;20198;-77
2021/04/13 09:20:45;;;;;;;8.23;2.27;;;18.40;99.90;;;;;;5033831;28;20531;-75
2021/04/13 09:23:18;;;;;;;8.20;2.00;;;18.30;99.90;;;;;;5052195;28;20180;-78
2021/04/13 09:25:59;;;;;;;7.97;1.80;;;18.30;99.90;;;;;;5055274;28;20238;-76
2021/04/13 09:28:52;;;;;;;12.50;2.53;;;18.30;99.90;;;;;;5055419;28;20186;-77
2021/04/13 09:31:42;;;;;;;8.87;2.30;;;18.30;99.90;;;;;;5055274;28;20210;-78
2021/04/13 09:34:13;;;;;;;12.00;2.43;;;18.30;99.90;;;;;;5053059;28;20180;-70
2021/04/13 09:36:52;;;;;;;10.10;2.60;;;18.20;99.90;;;;;;5045998;28;20190;-69
2021/04/13 09:39:46;;;;;;;15.80;2.27;;;18.20;99.90;;;;;;5059711;28;20258;-70
2021/04/13 09:42:32;;;;;;;12.93;2.30;;;18.20;99.90;;;;;;5044700;28;20592;-72
2021/04/13 09:45:40;;;;;;;12.63;2.40;;;18.10;99.90;;;;;;5064896;28;20182;-71
2021/04/13 09:48:12;;;;;;;5.90;1.70;;;18.10;99.90;;;;;;5027087;28;20188;-69
2021/04/13 09:51:01;;;;;;;8.20;1.80;;;18.00;99.90;;;;;;5041439;28;20576;-70
2021/04/13 09:53:55;;;;;;;8.27;2.10;;;18.00;99.90;;;;;;5054235;28;20218;-72
2021/04/13 09:56:29;;;;;;;11.93;2.00;;;18.00;99.90;;;;;;5050975;28;20192;-69
2021/04/13 09:59:29;;;;;;;5.97;2.00;;;18.00;99.90;;;;;;5075303;28;20235;-69
2021/04/13 10:02:27;;;;;;;16.27;2.27;;;18.00;99.90;;;;;;5075980;28;20171;-70
2021/04/13 10:05:19;;;;;;;5.90;2.10;;;17.90;99.90;;;;;;5051935;28;20178;-72
2021/04/13 10:08:23;;;;;;;8.73;2.13;;;17.90;99.90;;;;;;5044078;28;20194;-73
2021/04/13 10:11:11;;;;;;;6.07;1.77;;;17.80;99.90;;;;;;5034921;28;20219;-69
2021/04/13 10:13:53;;;;;;;9.93;2.50;;;17.80;99.90;;;;;;5054643;28;20180;-73
2021/04/13 10:16:46;;;;;;;16.13;1.80;;;17.80;99.90;;;;;;5053702;28;20214;-75
2021/04/13 10:19:37;;;;;;;12.10;2.10;;;17.80;99.90;;;;;;5048011;28;20203;-71
2021/04/13 10:22:07;;;;;;;11.83;2.03;;;17.70;99.90;;;;;;5054759;28;20183;-73
2021/04/13 10:25:02;;;;;;;9.13;2.30;;;17.70;99.90;;;;;;5054050;28;20180;-72
2021/04/13 10:27:47;;;;;;;11.17;2.00;;;17.70;99.90;;;;;;5053884;28;20184;-71
2021/04/13 10:30:20;;;;;;;6.93;2.23;;;17.70;99.90;;;;;;5054605;28;20693;-71
2021/04/13 10:33:11;;;;;;;5.67;2.10;;;17.70;99.90;;;;;;5054317;28;20199;-76
2021/04/13 10:35:54;;;;;;;9.87;2.27;;;17.70;99.90;;;;;;5050471;28;20643;-76
2021/04/13 10:38:50;;;;;;;10.37;2.17;;;17.60;99.90;;;;;;5054658;28;20558;-71
2021/04/13 10:41:57;;;;;;;6.17;1.63;;;17.60;99.90;;;;;;5051678;28;20183;-74
2021/04/13 10:44:52;;;;;;;7.70;1.67;;;17.50;99.90;;;;;;5048633;28;20660;-73
2021/04/13 10:47:37;;;;;;;6.10;2.13;;;17.50;99.90;;;;;;5047703;28;20281;-73
2021/04/13 10:50:22;;;;;;;8.93;2.23;;;17.50;99.90;;;;;;5052912;28;20229;-73
2021/04/13 10:53:27;;;;;;;6.23;1.87;;;17.50;99.90;;;;;;5054361;28;20184;-75
2021/04/13 10:56:35;;;;;;;6.23;2.00;;;17.40;99.90;;;;;;5053479;28;20179;-74
2021/04/13 10:59:23;;;;;;;10.10;1.67;;;17.30;99.90;;;;;;5035383;28;20191;-76
2021/04/13 11:02:23;;;;;;;4.87;1.90;;;17.30;99.90;;;;;;5051472;28;20199;-73
2021/04/13 11:05:08;;;;;;;7.00;1.60;;;17.30;99.90;;;;;;5041585;28;20274;-75
2021/04/13 11:07:56;;;;;;;9.50;2.57;;;17.30;99.90;;;;;;5042923;28;20696;-73
2021/04/13 11:10:42;;;;;;;7.47;1.60;;;17.30;99.90;;;;;;5053005;28;20175;-72
2021/04/13 11:13:09;;;;;;;9.37;2.10;;;17.20;99.90;;;;;;5053257;28;20187;-75
2021/04/13 11:16:18;;;;;;;8.10;2.03;;;17.20;99.90;;;;;;5053479;28;20262;-75
2021/04/13 11:18:46;;;;;;;10.73;1.87;;;17.10;99.90;;;;;;5055483;28;20734;-75
2021/04/13 11:21:55;;;;;;;5.37;1.57;;;17.10;99.90;;;;;;5062989;28;20191;-72
2021/04/13 11:24:23;;;;;;;11.43;2.00;;;17.00;99.90;;;;;;5049998;28;20249;-73
2021/04/13 11:27:38;;;;;;;8.20;1.93;;;17.00;99.90;;;;;;5073381;28;20680;-77
2021/04/13 11:30:23;;;;;;;6.70;1.90;;;17.10;99.90;;;;;;5069761;28;20215;-74
2021/04/13 11:33:18;;;;;;;6.57;2.03;;;17.10;99.90;;;;;;5048212;28;20197;-75
2021/04/13 11:36:16;;;;;;;15.10;2.20;;;17.10;99.90;;;;;;5056263;28;20210;-73
2021/04/13 11:38:51;;;;;;;4.63;1.80;;;17.10;99.90;;;;;;5044468;28;20210;-75
2021/04/13 11:41:44;;;;;;;8.07;1.83;;;17.00;99.90;;;;;;5052500;28;20270;-76
2021/04/13 11:44:23;;;;;;;7.60;2.07;;;17.00;99.90;;;;;;5043115;28;20283;-76
2021/04/13 11:47:10;;;;;;;9.10;1.60;;;17.00;99.90;;;;;;5051877;28;20217;-77
2021/04/13 11:49:47;;;;;;;5.67;2.13;;;17.00;99.90;;;;;;5052969;28;20202;-73
2021/04/13 11:52:43;;;;;;;4.20;1.73;;;17.00;99.90;;;;;;5050483;28;20223;-72
2021/04/13 11:55:29;;;;;;;12.97;2.00;;;17.00;99.90;;;;;;5050916;28;20186;-76
2021/04/13 11:58:16;;;;;;;6.00;1.53;;;17.00;99.90;;;;;;5052765;28;20197;-73
2021/04/13 12:00:47;;;;;;;6.73;1.93;;;17.00;99.90;;;;;;5052350;28;20187;-74
2021/04/13 12:03:31;;;;;;;12.30;1.77;;;17.00;99.90;;;;;;5051857;28;20186;-72
2021/04/13 12:06:26;;;;;;;11.43;1.90;;;17.00;99.90;;;;;;5051138;28;20187;-74
2021/04/13 12:08:54;;;;;;;8.13;1.90;;;17.00;99.90;;;;;;5051933;28;20210;-73
2021/04/13 12:11:39;;;;;;;9.87;1.93;;;16.90;99.90;;;;;;5053083;28;20199;-74
2021/04/13 12:14:44;;;;;;;6.10;1.70;;;16.90;99.90;;;;;;5052098;28;20543;-71
2021/04/13 12:17:38;;;;;;;4.93;1.60;;;16.90;99.90;;;;;;5049465;28;20254;-70
2021/04/13 12:20:41;;;;;;;7.27;2.00;;;16.80;99.90;;;;;;5051756;28;20184;-77
2021/04/13 12:23:14;;;;;;;7.70;1.87;;;16.80;99.90;;;;;;4992288;28;20723;-75
2021/04/13 12:25:45;;;;;;;11.50;2.00;;;16.80;99.90;;;;;;5049957;28;20187;-72
2021/04/13 12:28:15;;;;;;;5.37;1.70;;;16.70;99.90;;;;;;5052252;28;20180;-76
2021/04/13 12:30:42;;;;;;;10.17;2.33;;;16.60;99.90;;;;;;5052261;28;20690;-70
2021/04/13 12:33:29;;;;;;;6.77;2.03;;;16.60;99.90;;;;;;5052947;28;20180;-75
2021/04/13 12:36:08;;;;;;;8.37;1.80;;;16.60;99.90;;;;;;5048713;28;20191;-73
2021/04/13 12:38:49;;;;;;;7.27;1.90;;;16.50;99.90;;;;;;5052046;28;20669;-74
2021/04/13 12:41:34;;;;;;;7.80;2.00;;;16.60;99.90;;;;;;5051403;28;20180;-73
2021/04/13 12:44:19;;;;;;;10.90;2.70;;;16.50;99.90;;;;;;5052236;28;20241;-75
2021/04/13 12:47:30;;;;;;;5.20;2.03;;;16.50;99.90;;;;;;5051708;28;20191;-72
2021/04/13 12:49:58;;;;;;;5.53;1.63;;;16.50;99.90;;;;;;5050868;28;20238;-74
2021/04/13 12:52:25;;;;;;;10.33;2.47;;;16.60;99.90;;;;;;5050975;28;20211;-74
2021/04/13 12:54:53;;;;;;;7.00;1.93;;;16.60;99.90;;;;;;5052305;28;20213;-74
2021/04/13 12:57:25;;;;;;;6.93;1.90;;;16.60;99.90;;;;;;5050782;28;20226;-74
2021/04/13 13:00:09;;;;;;;9.90;2.00;;;16.60;99.90;;;;;;5053616;28;20175;-77
2021/04/13 13:02:49;;;;;;;9.87;2.10;;;16.60;99.90;;;;;;5054996;28;20222;-77
2021/04/13 13:05:25;;;;;;;9.50;2.07;;;16.60;99.90;;;;;;5054692;28;20679;-71
2021/04/13 13:08:04;;;;;;;9.30;1.70;;;16.60;99.90;;;;;;5055870;28;20171;-69
2021/04/13 13:10:43;;;;;;;6.40;2.30;;;16.60;99.90;;;;;;5055741;28;20183;-75
2021/04/13 13:13:24;;;;;;;6.57;1.60;;;16.60;99.90;;;;;;5055103;28;20551;-77
2021/04/13 13:15:53;;;;;;;8.40;1.87;;;16.60;99.90;;;;;;5055968;28;20210;-76
2021/04/13 13:18:36;;;;;;;7.13;1.73;;;16.50;99.90;;;;;;5048523;28;20181;-74
2021/04/13 13:21:08;;;;;;;5.30;2.13;;;16.50;99.90;;;;;;5050505;28;20214;-75
2021/04/13 13:23:48;;;;;;;5.43;1.97;;;16.50;99.90;;;;;;5054749;28;20645;-74
2021/04/13 13:26:21;;;;;;;6.20;1.53;;;16.40;99.90;;;;;;5055611;28;20174;-76
2021/04/13 13:28:48;;;;;;;6.53;2.30;;;16.40;99.90;;;;;;5055077;28;20643;-75
2021/04/13 13:31:28;;;;;;;7.70;2.13;;;16.40;99.90;;;;;;5056097;28;20569;-74
2021/04/13 13:34:05;;;;;;;11.00;1.83;;;16.30;99.90;;;;;;5042412;28;20214;-77
2021/04/13 13:36:36;;;;;;;8.97;2.07;;;16.30;99.90;;;;;;5055053;28;20270;-74
2021/04/13 13:39:09;;;;;;;7.57;1.80;;;16.30;99.90;;;;;;5055125;28;20665;-76
2021/04/13 13:41:44;;;;;;;9.33;1.90;;;16.20;99.90;;;;;;5065078;28;20183;-76
2021/04/13 13:44:19;;;;;;;11.73;2.30;;;16.10;99.90;;;;;;5064034;28;20716;-77
2021/04/13 13:47:07;;;;;;;6.03;2.17;;;16.10;99.90;;;;;;5069478;28;20258;-77